Main page
METAR-TAF:

METAR-TAF

Airports :

Langlade County Airport

Antigo, Wisconsin, United States

latitude: 45-09-15N, longitude: 89-06-39W, elevation: 1522 ft

Current weather observation

The report was made 33 minutes ago, at 08:35 UTC
Wind 26 mph from the East with gusts up to 32 mph
Temperature 39°F
Humidity 100%
Pressure 29.59 in. Hg
Visibility: 10 miles
Overcast at a height of 700 ft

METAR: KAIG 170835Z AUTO 10023G28KT 10SM OVC007 04/04 A2959 RMK AO2 T00400035

Time: 04:08 (09:08 UTC)


TAF: missing

Weather observations and forecasts of more than 4000 airports (METAR and TAF reports).

The available stations are represented by yellow and red dots on the map.

Hover mouse over dot to see the name of the station.

Then click to see weather observations and forecasts.

To change the map : click on the green buttons with a black cross to zoom in, on the green button with a dash to zoom out, or on the green arrows for adjacent maps.


METAR-TAF: